Bee Bayou, Louisiana
Current Conditions -  °F | °C
As of 2:53 PM on Saturday 25 Oct 2014 (Local Time) from KMLU Reporting Station
Clear Clear  
Wind Chill: 82°   Ceiling: Unl
Heat Index: 82°   Visibility: 10mi
Dew Point: 58°   Wind: 7mph
Humidity: 44%   Direction: 300°WNW
Pressure: 30.1"   Gusts: NA
Location:  32.4475°N, 91.7992°W
Report Text: KMLU 251953Z AUTO 30006KT 10SM CLR 28/14 A3010 RMK AO2 SLP190 T02780144
Loading
Personal Weather Stations






























Interactive Weather Map
Tropical Storm Tracking
New forecast layout! Learn more

10-Day Weather Forecast

Advertisements
Track Severe Weather on mobile